Narka, Kansas
Current Conditions -  °F | °C
As of 12:55 AM on Thursday 23 Oct 2014 (Local Time) from KHJH Reporting Station
Clear Clear  
Wind Chill: 60°   Ceiling: Unl
Heat Index: 60°   Visibility: 10mi
Dew Point: 56°   Wind: 6mph
Humidity: 89%   Direction: 180°S
Pressure: 30.03"   Gusts: NA
Location:  39.96°N, 97.43°W
Report Text: KHJH 230555Z AUTO 18005KT 10SM CLR 15/14 A3003 RMK AO2 60012 T01540136 10172 20154 402650128
Loading
Personal Weather Stations






























Interactive Weather Map New forecast layout! Learn more

10-Day Weather Forecast

Advertisements
Track Severe Weather on mobile